Time;durP1;ratioP1;P1;durP2;ratioP2;P2;SDS_P1;SDS_P2;PMS_P1;PMS_P2;Temp;Humidity;BMP_temperature;BMP_pressure;BME280_temperature;BME280_humidity;BME280_pressure;Samples;Min_cycle;Max_cycle;Signal;HPM_P1;HPM_P2
2023/05/25 00:02:03;;;;;;;;;;;12.80;56.20;;;;;;5069553;28;20283;-65
2023/05/25 00:04:33;;;;;;;;;;;12.80;56.10;;;;;;5059820;28;19919;-65
2023/05/25 00:07:01;;;;;;;;;;;12.80;56.50;;;;;;5061779;28;19920;-65
2023/05/25 00:09:27;;;;;;;;;;;12.80;57.30;;;;;;5058479;28;20334;-64
2023/05/25 00:11:52;;;;;;;;;;;12.80;57.90;;;;;;5069394;28;19916;-65
2023/05/25 00:14:18;;;;;;;;;;;12.80;58.00;;;;;;5058159;28;19913;-65
2023/05/25 00:16:46;;;;;;;;;;;12.80;57.70;;;;;;5070331;28;19952;-65
2023/05/25 00:19:13;;;;;;;;;;;12.70;57.40;;;;;;5059129;28;19923;-67
2023/05/25 00:21:38;;;;;;;;;;;12.70;57.20;;;;;;5069003;28;20007;-66
2023/05/25 00:24:04;;;;;;;;;;;12.60;57.30;;;;;;5055788;28;20007;-65
2023/05/25 00:26:29;;;;;;;;;;;12.60;57.70;;;;;;5065653;28;20358;-65
2023/05/25 00:28:55;;;;;;;;;;;12.50;58.30;;;;;;5058919;28;19917;-65
2023/05/25 00:31:21;;;;;;;;;;;12.50;58.40;;;;;;5063732;28;19924;-65
2023/05/25 00:33:46;;;;;;;;;;;12.40;58.20;;;;;;5068594;28;19909;-65
2023/05/25 00:36:12;;;;;;;;;;;12.40;58.30;;;;;;5067643;28;20345;-65
2023/05/25 00:38:37;;;;;;;;;;;12.30;58.00;;;;;;5058783;28;20015;-65
2023/05/25 00:41:04;;;;;;;;;;;12.30;57.90;;;;;;5064041;28;19927;-65
2023/05/25 00:43:30;;;;;;;;;;;12.20;58.00;;;;;;5065356;28;20017;-66
2023/05/25 00:45:56;;;;;;;;;;;12.20;57.90;;;;;;5068236;28;19920;-65
2023/05/25 00:48:22;;;;;;;;;;;12.10;57.80;;;;;;5057829;28;19908;-65
2023/05/25 00:50:49;;;;;;;;;;;12.10;57.80;;;;;;5057288;28;20006;-65
2023/05/25 00:53:15;;;;;;;;;;;12.00;57.70;;;;;;5053330;28;19913;-65
2023/05/25 00:55:49;;;;;;;;;;;11.90;57.70;;;;;;5064763;28;19916;-66
2023/05/25 00:58:15;;;;;;;;;;;11.90;57.70;;;;;;5066437;28;20435;-65
2023/05/25 01:00:41;;;;;;;;;;;11.80;57.80;;;;;;5051990;28;19912;-65
2023/05/25 01:03:16;;;;;;;;;;;11.80;57.70;;;;;;5054640;28;20368;-65
2023/05/25 01:05:44;;;;;;;;;;;11.70;57.60;;;;;;5050863;28;19919;-65
2023/05/25 01:08:10;;;;;;;;;;;11.60;57.60;;;;;;5067177;28;19908;-65
2023/05/25 01:10:37;;;;;;;;;;;11.50;57.70;;;;;;5052973;28;19914;-65
2023/05/25 01:13:03;;;;;;;;;;;11.50;57.90;;;;;;5063880;28;19927;-65
2023/05/25 01:15:29;;;;;;;;;;;11.40;57.90;;;;;;5070470;28;19912;-65
2023/05/25 01:17:58;;;;;;;;;;;11.40;57.80;;;;;;5054952;28;19920;-65
2023/05/25 01:20:29;;;;;;;;;;;11.30;57.90;;;;;;5060551;28;19909;-66
2023/05/25 01:22:57;;;;;;;;;;;11.30;58.00;;;;;;5060618;28;19917;-65
2023/05/25 01:25:52;;;;;;;;;;;11.20;58.00;;;;;;5066054;28;20386;-67
2023/05/25 01:28:21;;;;;;;;;;;11.20;58.00;;;;;;5032199;28;19920;-65
2023/05/25 01:30:48;;;;;;;;;;;11.20;58.10;;;;;;5059411;28;19916;-66
2023/05/25 01:33:14;;;;;;;;;;;11.10;58.20;;;;;;5061140;28;19952;-65
2023/05/25 01:35:40;;;;;;;;;;;11.10;58.20;;;;;;5067400;28;19909;-65
2023/05/25 01:38:07;;;;;;;;;;;11.00;58.10;;;;;;5055638;28;19923;-69
2023/05/25 01:40:32;;;;;;;;;;;11.00;58.20;;;;;;5060381;28;19969;-69
2023/05/25 01:42:58;;;;;;;;;;;10.90;58.10;;;;;;5060005;28;19930;-69
2023/05/25 01:45:23;;;;;;;;;;;10.80;58.10;;;;;;5066026;28;19909;-69
2023/05/25 01:47:48;;;;;;;;;;;10.80;58.10;;;;;;5054469;28;19909;-69
2023/05/25 01:50:22;;;;;;;;;;;10.80;58.10;;;;;;5061391;28;19915;-69
2023/05/25 01:52:50;;;;;;;;;;;10.80;58.10;;;;;;5063008;28;20069;-69
2023/05/25 01:55:17;;;;;;;;;;;10.70;58.20;;;;;;5049234;28;19919;-69
2023/05/25 01:57:44;;;;;;;;;;;10.70;58.20;;;;;;5068690;28;19928;-69
2023/05/25 02:00:11;;;;;;;;;;;10.70;58.20;;;;;;5058068;28;19908;-69
2023/05/25 02:02:37;;;;;;;;;;;10.60;58.20;;;;;;5063762;28;19928;-69
2023/05/25 02:05:02;;;;;;;;;;;10.60;58.30;;;;;;5061942;28;20296;-69
2023/05/25 02:07:28;;;;;;;;;;;10.60;58.20;;;;;;5070399;28;19916;-69
2023/05/25 02:09:53;;;;;;;;;;;10.60;58.20;;;;;;5058419;28;20031;-69
2023/05/25 02:12:19;;;;;;;;;;;10.50;58.30;;;;;;5069048;28;19955;-69
2023/05/25 02:14:47;;;;;;;;;;;10.50;58.40;;;;;;5063914;28;19912;-69
2023/05/25 02:17:12;;;;;;;;;;;10.40;58.40;;;;;;5070919;28;20011;-69
2023/05/25 02:19:38;;;;;;;;;;;10.40;58.50;;;;;;5057888;28;19996;-69
2023/05/25 02:22:03;;;;;;;;;;;10.30;58.50;;;;;;5071049;28;19962;-67
2023/05/25 02:24:29;;;;;;;;;;;10.30;58.70;;;;;;5061497;28;19952;-68
2023/05/25 02:26:54;;;;;;;;;;;10.30;58.80;;;;;;5064127;28;19916;-69
2023/05/25 02:29:20;;;;;;;;;;;10.20;58.90;;;;;;5061772;28;20486;-68
2023/05/25 02:31:45;;;;;;;;;;;10.30;58.90;;;;;;5071322;28;20023;-70
2023/05/25 02:34:12;;;;;;;;;;;10.20;59.10;;;;;;5059305;28;19919;-68
2023/05/25 02:36:38;;;;;;;;;;;10.20;59.10;;;;;;5066561;28;19970;-68
2023/05/25 02:39:03;;;;;;;;;;;10.20;59.10;;;;;;5061717;28;20381;-68
2023/05/25 02:41:29;;;;;;;;;;;10.20;59.00;;;;;;5070428;28;19926;-69
2023/05/25 02:43:54;;;;;;;;;;;10.10;59.00;;;;;;5057841;28;19920;-70
2023/05/25 02:46:21;;;;;;;;;;;10.00;58.90;;;;;;5068656;28;20368;-70
2023/05/25 02:48:47;;;;;;;;;;;10.00;58.90;;;;;;5061632;28;19928;-71
2023/05/25 02:51:12;;;;;;;;;;;10.00;58.90;;;;;;5068084;28;19917;-70
2023/05/25 02:53:38;;;;;;;;;;;10.00;59.00;;;;;;5057247;28;19920;-70
2023/05/25 02:56:09;;;;;;;;;;;9.90;59.10;;;;;;5053580;28;19925;-69
2023/05/25 02:58:34;;;;;;;;;;;9.90;59.10;;;;;;5049425;28;20000;-69
2023/05/25 03:01:00;;;;;;;;;;;9.90;59.30;;;;;;5065844;28;19916;-70
2023/05/25 03:03:26;;;;;;;;;;;9.80;59.30;;;;;;5058288;28;20360;-70
2023/05/25 03:05:52;;;;;;;;;;;9.80;59.40;;;;;;5063919;28;19917;-70
2023/05/25 03:08:17;;;;;;;;;;;9.80;59.40;;;;;;5068534;28;20322;-70
2023/05/25 03:10:43;;;;;;;;;;;9.80;59.40;;;;;;5062187;28;19924;-70
2023/05/25 03:13:08;;;;;;;;;;;9.80;59.40;;;;;;5061319;28;19908;-70
2023/05/25 03:15:34;;;;;;;;;;;9.70;59.50;;;;;;5070214;28;20285;-70
2023/05/25 03:18:00;;;;;;;;;;;9.70;59.50;;;;;;5057379;28;20356;-70
2023/05/25 03:20:26;;;;;;;;;;;9.70;59.50;;;;;;5064420;28;19912;-68
2023/05/25 03:22:51;;;;;;;;;;;9.60;59.50;;;;;;5066991;28;19912;-69
2023/05/25 03:25:17;;;;;;;;;;;9.70;59.70;;;;;;5072587;28;19919;-69
2023/05/25 03:27:42;;;;;;;;;;;9.60;59.70;;;;;;5057610;28;19927;-70
2023/05/25 03:30:08;;;;;;;;;;;9.60;59.80;;;;;;5059109;28;19920;-68
2023/05/25 03:32:35;;;;;;;;;;;9.60;59.90;;;;;;5059135;28;20319;-69
2023/05/25 03:35:00;;;;;;;;;;;9.60;59.90;;;;;;5064897;28;19909;-69
2023/05/25 03:37:26;;;;;;;;;;;9.60;59.80;;;;;;5058804;28;19917;-69
2023/05/25 03:39:51;;;;;;;;;;;9.70;59.90;;;;;;5061000;28;19919;-69
2023/05/25 03:42:16;;;;;;;;;;;9.70;60.00;;;;;;5063570;28;19925;-69
2023/05/25 03:44:42;;;;;;;;;;;9.70;60.20;;;;;;5070305;28;19912;-69
2023/05/25 03:47:07;;;;;;;;;;;9.70;60.40;;;;;;5039623;28;19924;-69
2023/05/25 03:49:33;;;;;;;;;;;9.80;60.70;;;;;;5054221;28;19912;-69
2023/05/25 03:52:00;;;;;;;;;;;9.80;61.00;;;;;;5059387;28;20020;-70
2023/05/25 03:54:25;;;;;;;;;;;10.00;61.30;;;;;;5066777;28;20376;-69
2023/05/25 03:56:51;;;;;;;;;;;10.10;61.60;;;;;;5063894;28;20003;-69
2023/05/25 03:59:17;;;;;;;;;;;10.20;61.80;;;;;;5059406;28;19913;-70
2023/05/25 04:01:43;;;;;;;;;;;10.40;61.90;;;;;;5070522;28;19924;-70
2023/05/25 04:04:08;;;;;;;;;;;10.60;62.20;;;;;;5057816;28;19909;-69
2023/05/25 04:06:36;;;;;;;;;;;10.70;62.30;;;;;;5065742;28;19917;-69
2023/05/25 04:09:02;;;;;;;;;;;10.90;62.50;;;;;;5059121;28;20375;-69
2023/05/25 04:11:28;;;;;;;;;;;11.10;62.80;;;;;;5068701;28;20007;-69
2023/05/25 04:13:53;;;;;;;;;;;11.20;62.90;;;;;;5055258;28;20355;-70
2023/05/25 04:16:20;;;;;;;;;;;11.40;63.00;;;;;;5067778;28;19917;-70
2023/05/25 04:18:46;;;;;;;;;;;11.60;63.00;;;;;;5060186;28;19954;-70
2023/05/25 04:21:11;;;;;;;;;;;11.70;63.10;;;;;;5065120;28;19917;-70
2023/05/25 04:23:36;;;;;;;;;;;11.90;63.20;;;;;;5055817;28;19927;-70
2023/05/25 04:26:02;;;;;;;;;;;12.00;63.30;;;;;;5069436;28;19917;-70
2023/05/25 04:28:28;;;;;;;;;;;12.10;63.40;;;;;;5059986;28;19908;-70
2023/05/25 04:30:55;;;;;;;;;;;12.20;63.50;;;;;;5063728;28;19920;-69
2023/05/25 04:33:21;;;;;;;;;;;12.40;63.50;;;;;;5056302;28;19916;-69
2023/05/25 04:35:49;;;;;;;;;;;12.50;63.60;;;;;;5062046;28;19921;-69
2023/05/25 04:38:16;;;;;;;;;;;12.70;63.70;;;;;;5065000;28;19915;-69
2023/05/25 04:40:42;;;;;;;;;;;12.80;63.80;;;;;;5063920;28;19909;-70
2023/05/25 04:43:08;;;;;;;;;;;12.90;64.00;;;;;;5065600;28;20390;-69
2023/05/25 04:45:34;;;;;;;;;;;13.10;64.00;;;;;;5071727;28;20421;-69
2023/05/25 04:48:00;;;;;;;;;;;13.20;64.20;;;;;;5056184;28;19916;-69
2023/05/25 04:50:26;;;;;;;;;;;13.30;64.20;;;;;;5062733;28;19919;-69
2023/05/25 04:52:52;;;;;;;;;;;13.40;64.30;;;;;;5062794;28;19919;-69
2023/05/25 04:55:17;;;;;;;;;;;13.50;64.30;;;;;;5053970;28;19942;-69
2023/05/25 04:57:42;;;;;;;;;;;13.70;64.40;;;;;;5060816;28;20019;-69
2023/05/25 05:00:09;;;;;;;;;;;13.80;64.40;;;;;;5063256;28;19909;-66
2023/05/25 05:02:35;;;;;;;;;;;13.90;64.40;;;;;;5064703;28;20023;-67
2023/05/25 05:05:01;;;;;;;;;;;14.10;64.50;;;;;;5063310;28;20007;-65
2023/05/25 05:07:27;;;;;;;;;;;14.20;64.50;;;;;;5043125;28;20280;-65
2023/05/25 05:09:53;;;;;;;;;;;14.30;64.50;;;;;;5058622;28;20284;-66
2023/05/25 05:12:18;;;;;;;;;;;14.40;64.60;;;;;;5054732;28;19970;-65
2023/05/25 05:14:44;;;;;;;;;;;14.50;64.60;;;;;;5052467;28;20398;-65
2023/05/25 05:17:10;;;;;;;;;;;14.60;64.60;;;;;;5053697;28;19917;-65
2023/05/25 05:19:36;;;;;;;;;;;14.70;64.60;;;;;;5063379;28;19924;-65
2023/05/25 05:22:01;;;;;;;;;;;14.70;64.50;;;;;;5054913;28;19924;-66
2023/05/25 05:24:27;;;;;;;;;;;14.80;64.50;;;;;;5058054;28;19971;-65
2023/05/25 05:26:52;;;;;;;;;;;14.80;64.50;;;;;;5062001;28;19913;-67
2023/05/25 05:29:18;;;;;;;;;;;14.90;64.50;;;;;;5058933;28;19912;-68
2023/05/25 05:31:44;;;;;;;;;;;15.00;64.60;;;;;;5055392;28;19995;-70
2023/05/25 05:34:09;;;;;;;;;;;15.10;64.70;;;;;;5055031;28;20011;-70
2023/05/25 05:36:36;;;;;;;;;;;15.10;64.80;;;;;;5064329;28;19917;-70
2023/05/25 05:39:02;;;;;;;;;;;15.20;64.90;;;;;;5059365;28;19920;-71
2023/05/25 05:41:27;;;;;;;;;;;15.30;65.00;;;;;;5067393;28;19924;-70
2023/05/25 05:43:54;;;;;;;;;;;15.50;65.00;;;;;;5054769;28;21389;-70
2023/05/25 05:46:20;;;;;;;;;;;15.50;65.00;;;;;;5064893;28;19913;-69
2023/05/25 05:48:46;;;;;;;;;;;15.60;64.90;;;;;;5059107;28;19919;-69
2023/05/25 05:51:11;;;;;;;;;;;15.70;65.00;;;;;;5065313;28;20347;-69
2023/05/25 05:53:36;;;;;;;;;;;15.70;65.00;;;;;;5054584;28;19971;-69
2023/05/25 05:56:02;;;;;;;;;;;15.80;65.10;;;;;;5056733;28;19948;-71
2023/05/25 05:58:28;;;;;;;;;;;15.90;65.10;;;;;;5064719;28;19913;-70
2023/05/25 06:00:55;;;;;;;;;;;16.00;64.90;;;;;;5033729;28;19943;-69
2023/05/25 06:03:21;;;;;;;;;;;16.10;64.60;;;;;;5055193;28;20374;-69
2023/05/25 06:05:46;;;;;;;;;;;16.20;64.70;;;;;;5067596;28;20014;-69
2023/05/25 06:08:12;;;;;;;;;;;16.20;64.50;;;;;;5054320;28;19916;-69
2023/05/25 06:10:38;;;;;;;;;;;16.20;64.40;;;;;;5060592;28;19912;-69
2023/05/25 06:13:03;;;;;;;;;;;16.20;64.50;;;;;;5058309;28;19939;-69
2023/05/25 06:15:28;;;;;;;;;;;16.30;64.40;;;;;;5066192;28;19916;-69
2023/05/25 06:17:54;;;;;;;;;;;16.40;64.00;;;;;;5053090;28;19921;-68
2023/05/25 06:20:19;;;;;;;;;;;16.40;63.90;;;;;;5056200;28;19913;-69
2023/05/25 06:22:45;;;;;;;;;;;16.40;63.80;;;;;;5052513;28;19920;-69
2023/05/25 06:25:10;;;;;;;;;;;16.50;62.80;;;;;;5052368;28;20403;-69
2023/05/25 06:27:36;;;;;;;;;;;16.40;61.90;;;;;;5066758;28;19991;-69
2023/05/25 06:30:02;;;;;;;;;;;16.40;62.10;;;;;;5051631;28;19928;-70
2023/05/25 06:32:27;;;;;;;;;;;16.40;61.80;;;;;;5062124;28;19917;-70
2023/05/25 06:34:53;;;;;;;;;;;16.40;61.50;;;;;;5070319;28;19960;-69
2023/05/25 06:37:18;;;;;;;;;;;16.40;60.20;;;;;;5067114;28;19917;-69
2023/05/25 06:39:44;;;;;;;;;;;16.40;60.10;;;;;;5051803;28;20015;-69
2023/05/25 06:42:10;;;;;;;;;;;16.40;60.50;;;;;;5046293;28;19971;-70
2023/05/25 06:44:36;;;;;;;;;;;16.50;60.10;;;;;;5049607;28;19917;-69
2023/05/25 06:47:01;;;;;;;;;;;16.50;60.40;;;;;;5054642;28;19917;-69
2023/05/25 06:49:27;;;;;;;;;;;16.60;60.20;;;;;;5060916;28;19947;-68
2023/05/25 06:51:52;;;;;;;;;;;16.70;60.70;;;;;;5052180;28;19913;-68
2023/05/25 06:54:18;;;;;;;;;;;16.80;60.40;;;;;;5059053;28;19912;-69
2023/05/25 06:56:44;;;;;;;;;;;16.90;60.30;;;;;;5052469;28;19920;-70
2023/05/25 06:59:10;;;;;;;;;;;17.00;59.90;;;;;;5057056;28;20324;-70
2023/05/25 07:01:35;;;;;;;;;;;17.00;60.40;;;;;;5054524;28;19973;-69
2023/05/25 07:04:01;;;;;;;;;;;17.10;59.30;;;;;;5052027;28;19928;-69
2023/05/25 07:06:26;;;;;;;;;;;17.10;59.10;;;;;;5061393;28;20118;-70
2023/05/25 07:08:52;;;;;;;;;;;17.20;58.80;;;;;;5064409;28;19942;-69
2023/05/25 07:11:19;;;;;;;;;;;17.20;58.80;;;;;;5058222;28;20010;-69
2023/05/25 07:13:45;;;;;;;;;;;17.20;58.60;;;;;;5054170;28;20368;-70
2023/05/25 07:16:10;;;;;;;;;;;17.30;58.30;;;;;;5061860;28;19913;-69
2023/05/25 07:18:38;;;;;;;;;;;17.30;57.80;;;;;;5056268;28;20007;-69
2023/05/25 07:21:03;;;;;;;;;;;17.20;57.70;;;;;;5055674;28;20360;-69
2023/05/25 07:23:28;;;;;;;;;;;17.30;57.70;;;;;;5058944;28;19920;-69
2023/05/25 07:25:54;;;;;;;;;;;17.40;58.00;;;;;;5063163;28;19917;-69
2023/05/25 07:28:19;;;;;;;;;;;17.50;58.70;;;;;;5067738;28;19924;-69
2023/05/25 07:30:45;;;;;;;;;;;17.80;58.20;;;;;;5062907;28;19912;-69
2023/05/25 07:33:10;;;;;;;;;;;18.00;57.60;;;;;;5060638;28;19917;-70
2023/05/25 07:35:36;;;;;;;;;;;18.20;58.30;;;;;;5068938;28;19916;-69
2023/05/25 07:38:03;;;;;;;;;;;18.40;58.20;;;;;;5052954;28;20277;-69
2023/05/25 07:40:28;;;;;;;;;;;18.70;58.10;;;;;;5060412;28;20249;-69
2023/05/25 07:42:54;;;;;;;;;;;18.80;57.60;;;;;;5061847;28;19936;-70
2023/05/25 07:45:19;;;;;;;;;;;18.90;58.20;;;;;;5054471;28;19912;-70
2023/05/25 07:47:45;;;;;;;;;;;19.20;58.10;;;;;;5056337;28;19947;-70
2023/05/25 07:50:10;;;;;;;;;;;19.30;58.30;;;;;;5058731;28;19924;-69
2023/05/25 07:52:37;;;;;;;;;;;19.50;57.20;;;;;;5057982;28;20345;-70
2023/05/25 07:55:03;;;;;;;;;;;19.50;56.90;;;;;;5054538;28;19913;-70
2023/05/25 07:57:28;;;;;;;;;;;19.50;55.00;;;;;;5058109;28;19920;-70
2023/05/25 07:59:54;;;;;;;;;;;19.50;54.20;;;;;;5062398;28;19956;-71
2023/05/25 08:02:19;;;;;;;;;;;19.50;54.50;;;;;;5067530;28;20011;-70
2023/05/25 08:04:45;;;;;;;;;;;19.60;54.80;;;;;;5062114;28;19963;-71
2023/05/25 08:07:10;;;;;;;;;;;19.70;54.30;;;;;;5060481;28;19909;-70
2023/05/25 08:09:35;;;;;;;;;;;19.80;54.60;;;;;;5059686;28;19978;-69
2023/05/25 08:12:01;;;;;;;;;;;20.00;54.90;;;;;;5069798;28;19913;-70
2023/05/25 08:14:26;;;;;;;;;;;20.30;55.10;;;;;;5067152;28;19921;-71
2023/05/25 08:16:52;;;;;;;;;;;20.60;54.40;;;;;;5062167;28;19909;-70
2023/05/25 08:19:18;;;;;;;;;;;20.80;54.00;;;;;;5059924;28;20280;-70
2023/05/25 08:21:43;;;;;;;;;;;21.00;52.80;;;;;;5059183;28;19916;-69
2023/05/25 08:24:09;;;;;;;;;;;21.20;51.80;;;;;;5059556;28;19913;-69
2023/05/25 08:26:35;;;;;;;;;;;21.20;50.40;;;;;;5056422;28;19913;-66
2023/05/25 08:29:01;;;;;;;;;;;21.20;50.70;;;;;;5060213;28;19921;-66
2023/05/25 08:31:27;;;;;;;;;;;21.30;49.90;;;;;;5056451;28;20395;-66
2023/05/25 08:33:52;;;;;;;;;;;21.30;50.90;;;;;;5070346;28;20288;-66
2023/05/25 08:36:18;;;;;;;;;;;21.60;51.40;;;;;;5067057;28;19913;-67
2023/05/25 08:38:43;;;;;;;;;;;21.70;49.00;;;;;;5059362;28;19912;-67
2023/05/25 08:41:10;;;;;;;;;;;21.70;47.50;;;;;;5055146;28;19921;-67
2023/05/25 08:43:36;;;;;;;;;;;21.50;47.30;;;;;;5052163;28;20291;-66
2023/05/25 08:46:05;;;;;;;;;;;21.60;47.70;;;;;;5068432;28;19913;-66
2023/05/25 08:48:35;;;;;;;;;;;21.80;48.80;;;;;;5051526;28;19928;-66
2023/05/25 08:51:03;;;;;;;;;;;22.20;49.30;;;;;;5061046;28;19920;-66
2023/05/25 08:53:30;;;;;;;;;;;22.40;48.80;;;;;;5065945;28;19917;-66
2023/05/25 08:55:56;;;;;;;;;;;22.60;47.70;;;;;;5054348;28;20007;-66
2023/05/25 08:58:26;;;;;;;;;;;22.80;46.20;;;;;;5058641;28;19920;-66
2023/05/25 09:00:54;;;;;;;;;;;22.90;46.10;;;;;;5056753;28;20375;-66
2023/05/25 09:03:20;;;;;;;;;;;23.00;46.20;;;;;;5060585;28;20336;-68
2023/05/25 09:05:46;;;;;;;;;;;23.30;46.20;;;;;;5054225;28;20011;-66
2023/05/25 09:08:12;;;;;;;;;;;23.40;44.40;;;;;;5066874;28;19920;-66
2023/05/25 09:10:38;;;;;;;;;;;23.30;43.10;;;;;;5048904;28;20728;-66
2023/05/25 09:13:03;;;;;;;;;;;23.20;43.40;;;;;;5046034;28;19959;-65
2023/05/25 09:15:30;;;;;;;;;;;23.20;42.20;;;;;;5055578;28;19921;-65
2023/05/25 09:17:55;;;;;;;;;;;23.20;41.70;;;;;;5066821;28;19917;-66
2023/05/25 09:20:22;;;;;;;;;;;23.10;41.60;;;;;;5057534;28;19916;-65
2023/05/25 09:22:48;;;;;;;;;;;23.20;41.50;;;;;;5060289;28;19925;-65
2023/05/25 09:25:19;;;;;;;;;;;23.20;41.10;;;;;;5051437;28;19920;-65
2023/05/25 09:27:44;;;;;;;;;;;23.30;40.70;;;;;;5068381;28;19987;-66
2023/05/25 09:30:10;;;;;;;;;;;23.40;41.30;;;;;;5054155;28;20019;-65
2023/05/25 09:32:36;;;;;;;;;;;23.70;40.90;;;;;;5058683;28;19912;-66
2023/05/25 09:35:05;;;;;;;;;;;23.80;40.40;;;;;;5059210;28;19978;-66
2023/05/25 09:37:31;;;;;;;;;;;23.90;39.80;;;;;;5056813;28;19967;-66
2023/05/25 09:39:56;;;;;;;;;;;23.80;39.10;;;;;;5061691;28;19924;-66
2023/05/25 09:42:22;;;;;;;;;;;23.90;39.50;;;;;;5057407;28;19960;-68
2023/05/25 09:44:47;;;;;;;;;;;24.10;39.10;;;;;;5051772;28;20456;-65
2023/05/25 09:47:15;;;;;;;;;;;24.30;38.90;;;;;;5056829;28;20349;-66
2023/05/25 09:49:41;;;;;;;;;;;24.80;40.10;;;;;;5054332;28;20271;-65
2023/05/25 09:52:06;;;;;;;;;;;25.10;37.40;;;;;;5054664;28;19912;-66
2023/05/25 09:54:32;;;;;;;;;;;25.00;36.70;;;;;;5057303;28;20429;-66
2023/05/25 09:57:02;;;;;;;;;;;25.00;36.80;;;;;;5060309;28;19916;-67
2023/05/25 09:59:28;;;;;;;;;;;24.80;36.50;;;;;;5059776;28;20355;-66
2023/05/25 10:01:53;;;;;;;;;;;24.80;37.10;;;;;;5067813;28;19971;-72
2023/05/25 10:04:19;;;;;;;;;;;25.00;36.80;;;;;;5051387;28;19944;-70
2023/05/25 10:06:48;;;;;;;;;;;25.10;36.40;;;;;;5061212;28;19919;-70
2023/05/25 10:09:14;;;;;;;;;;;25.30;36.40;;;;;;5057909;28;19919;-71
2023/05/25 10:11:40;;;;;;;;;;;25.50;37.10;;;;;;5068205;28;19913;-69
2023/05/25 10:14:06;;;;;;;;;;;25.90;37.40;;;;;;5051833;28;19935;-70
2023/05/25 10:16:32;;;;;;;;;;;26.40;37.50;;;;;;5059564;28;19936;-72
2023/05/25 10:19:24;;;;;;;;;;;26.90;35.30;;;;;;5060565;28;19966;-69
2023/05/25 10:21:54;;;;;;;;;;;27.00;33.60;;;;;;5067656;28;20034;-71
2023/05/25 10:24:46;;;;;;;;;;;26.80;33.00;;;;;;5055253;28;20372;-70
2023/05/25 10:27:14;;;;;;;;;;;26.60;33.00;;;;;;5059649;28;19912;-70
2023/05/25 10:29:40;;;;;;;;;;;26.30;32.90;;;;;;5063785;28;20325;-70
2023/05/25 10:32:06;;;;;;;;;;;26.10;33.00;;;;;;5070872;28;19919;-69
2023/05/25 10:34:31;;;;;;;;;;;26.00;32.80;;;;;;5055222;28;19917;-71
2023/05/25 10:36:57;;;;;;;;;;;25.80;32.90;;;;;;5058383;28;19920;-70
2023/05/25 10:39:23;;;;;;;;;;;25.50;33.00;;;;;;5063310;28;20364;-72
2023/05/25 10:41:50;;;;;;;;;;;25.30;33.60;;;;;;5069451;28;19916;-70
2023/05/25 10:44:16;;;;;;;;;;;25.50;34.00;;;;;;5037347;28;19975;-71
2023/05/25 10:46:41;;;;;;;;;;;25.80;34.20;;;;;;5036675;28;19917;-70
2023/05/25 10:49:07;;;;;;;;;;;26.10;33.90;;;;;;5063300;28;19947;-70
2023/05/25 10:51:39;;;;;;;;;;;26.30;33.40;;;;;;5057608;28;19913;-70
2023/05/25 10:54:04;;;;;;;;;;;26.60;32.80;;;;;;5053306;28;20296;-72
2023/05/25 10:56:30;;;;;;;;;;;26.70;32.60;;;;;;5062223;28;19999;-71
2023/05/25 10:58:55;;;;;;;;;;;26.70;32.30;;;;;;5063043;28;19912;-70
2023/05/25 11:01:21;;;;;;;;;;;26.60;32.70;;;;;;5057829;28;19920;-72
2023/05/25 11:03:47;;;;;;;;;;;26.30;32.70;;;;;;5070330;28;19920;-70
2023/05/25 11:06:17;;;;;;;;;;;26.00;33.20;;;;;;5052969;28;19959;-70
2023/05/25 11:08:49;;;;;;;;;;;25.80;33.50;;;;;;5062839;28;20020;-70
2023/05/25 11:11:15;;;;;;;;;;;25.60;33.90;;;;;;5057744;28;20383;-70
2023/05/25 11:13:44;;;;;;;;;;;25.30;34.00;;;;;;5053100;28;19917;-70
2023/05/25 11:16:13;;;;;;;;;;;25.00;34.30;;;;;;5057277;28;19912;-70
2023/05/25 11:18:43;;;;;;;;;;;24.80;35.10;;;;;;5064554;28;19917;-70
2023/05/25 11:21:12;;;;;;;;;;;24.80;35.50;;;;;;5048290;28;19919;-71
2023/05/25 11:23:38;;;;;;;;;;;24.80;35.70;;;;;;5055225;28;20020;-71
2023/05/25 11:26:05;;;;;;;;;;;24.90;35.60;;;;;;5057524;28;19917;-70
2023/05/25 11:28:31;;;;;;;;;;;24.80;34.80;;;;;;5065525;28;19956;-69
2023/05/25 11:30:56;;;;;;;;;;;24.70;34.90;;;;;;5063763;28;20318;-70
2023/05/25 11:33:22;;;;;;;;;;;24.70;34.90;;;;;;5057968;28;20007;-70
2023/05/25 11:35:48;;;;;;;;;;;24.60;34.60;;;;;;5055026;28;19995;-70
2023/05/25 11:38:14;;;;;;;;;;;24.60;35.10;;;;;;5056044;28;20471;-70
2023/05/25 11:40:40;;;;;;;;;;;24.70;35.40;;;;;;5061718;28;19913;-70
2023/05/25 11:43:06;;;;;;;;;;;24.80;35.20;;;;;;5064198;28;20008;-70
2023/05/25 11:45:32;;;;;;;;;;;24.80;34.80;;;;;;5057307;28;19916;-70
2023/05/25 11:47:58;;;;;;;;;;;24.70;34.90;;;;;;5055272;28;19927;-70
2023/05/25 11:50:23;;;;;;;;;;;24.50;34.90;;;;;;5063693;28;19916;-70
2023/05/25 11:52:49;;;;;;;;;;;24.50;35.30;;;;;;5063845;28;20405;-70
2023/05/25 11:55:14;;;;;;;;;;;24.60;35.40;;;;;;5071157;28;19919;-70
2023/05/25 11:57:40;;;;;;;;;;;24.80;35.20;;;;;;5056233;28;19913;-70
2023/05/25 12:00:08;;;;;;;;;;;25.00;35.00;;;;;;5065260;28;19921;-70
2023/05/25 12:02:37;;;;;;;;;;;25.20;34.70;;;;;;5064614;28;19916;-70
2023/05/25 12:05:03;;;;;;;;;;;25.30;34.10;;;;;;5061066;28;19912;-71
2023/05/25 12:07:29;;;;;;;;;;;25.30;34.10;;;;;;5052939;28;19912;-70
2023/05/25 12:10:05;;;;;;;;;;;25.50;34.00;;;;;;5062904;28;19964;-71
2023/05/25 12:12:36;;;;;;;;;;;25.60;33.60;;;;;;5066007;28;19919;-70
2023/05/25 12:15:01;;;;;;;;;;;25.80;33.40;;;;;;5052209;28;19923;-70
2023/05/25 12:17:27;;;;;;;;;;;25.90;32.50;;;;;;5068367;28;19928;-70
2023/05/25 12:19:52;;;;;;;;;;;25.80;32.60;;;;;;5054705;28;20302;-69
2023/05/25 12:22:18;;;;;;;;;;;26.00;32.90;;;;;;5067176;28;20366;-70
2023/05/25 12:24:43;;;;;;;;;;;26.00;32.70;;;;;;5050626;28;20265;-70
2023/05/25 12:27:16;;;;;;;;;;;26.10;32.50;;;;;;5053898;28;20324;-70
2023/05/25 12:29:45;;;;;;;;;;;26.10;32.30;;;;;;5060674;28;19917;-70
2023/05/25 12:32:10;;;;;;;;;;;26.00;32.30;;;;;;5068222;28;19913;-70
2023/05/25 12:34:36;;;;;;;;;;;26.10;32.30;;;;;;5051713;28;19923;-71
2023/05/25 12:37:01;;;;;;;;;;;25.80;32.40;;;;;;5057100;28;19928;-70
2023/05/25 12:39:30;;;;;;;;;;;25.90;32.80;;;;;;5061116;28;19917;-71
2023/05/25 12:41:56;;;;;;;;;;;26.20;33.10;;;;;;5067302;28;20368;-70
2023/05/25 12:44:31;;;;;;;;;;;26.70;32.60;;;;;;5038890;28;20376;-70
2023/05/25 12:47:09;;;;;;;;;;;27.20;31.80;;;;;;5054038;28;19916;-70
2023/05/25 12:49:35;;;;;;;;;;;27.30;30.80;;;;;;5051560;28;20015;-70
2023/05/25 12:52:01;;;;;;;;;;;27.30;30.10;;;;;;5068997;28;19982;-70
2023/05/25 12:54:31;;;;;;;;;;;27.10;30.40;;;;;;5055412;28;19925;-70
2023/05/25 12:56:57;;;;;;;;;;;27.10;30.60;;;;;;5061134;28;19920;-70
2023/05/25 12:59:22;;;;;;;;;;;27.00;30.40;;;;;;5059554;28;19916;-70
2023/05/25 13:01:48;;;;;;;;;;;26.90;30.50;;;;;;5068265;28;19960;-69
2023/05/25 13:04:13;;;;;;;;;;;26.80;30.60;;;;;;5050226;28;19952;-70
2023/05/25 13:06:39;;;;;;;;;;;26.70;30.80;;;;;;5060692;28;19986;-70
2023/05/25 13:09:04;;;;;;;;;;;26.60;30.90;;;;;;5064969;28;19920;-70
2023/05/25 13:11:29;;;;;;;;;;;26.50;31.20;;;;;;5067650;28;19921;-70
2023/05/25 13:13:55;;;;;;;;;;;26.60;31.50;;;;;;5051807;28;20717;-70
2023/05/25 13:16:21;;;;;;;;;;;26.70;30.90;;;;;;5057190;28;19916;-70
2023/05/25 13:18:47;;;;;;;;;;;26.70;30.90;;;;;;5062763;28;19962;-70
2023/05/25 13:21:12;;;;;;;;;;;26.70;30.60;;;;;;5050738;28;19912;-70
2023/05/25 13:23:37;;;;;;;;;;;26.70;31.10;;;;;;5065715;28;19920;-70
2023/05/25 13:26:03;;;;;;;;;;;26.90;31.40;;;;;;5055183;28;19991;-70
2023/05/25 13:28:28;;;;;;;;;;;27.20;31.40;;;;;;5053932;28;19936;-70
2023/05/25 13:30:54;;;;;;;;;;;27.30;30.70;;;;;;5051300;28;19916;-70
2023/05/25 13:33:19;;;;;;;;;;;27.30;30.20;;;;;;5065746;28;19967;-71
2023/05/25 13:35:56;;;;;;;;;;;27.30;30.10;;;;;;5050296;28;19913;-70
2023/05/25 13:38:22;;;;;;;;;;;27.20;30.10;;;;;;5057596;28;20371;-70
2023/05/25 13:40:47;;;;;;;;;;;27.20;30.00;;;;;;5063063;28;19919;-70
2023/05/25 13:43:13;;;;;;;;;;;27.10;30.20;;;;;;5057773;28;19924;-70
2023/05/25 13:45:38;;;;;;;;;;;27.00;30.00;;;;;;5051444;28;19908;-69
2023/05/25 13:48:04;;;;;;;;;;;26.80;30.30;;;;;;5067476;28;19917;-70
2023/05/25 13:50:29;;;;;;;;;;;26.60;30.60;;;;;;5058198;28;19915;-69
2023/05/25 13:52:55;;;;;;;;;;;26.30;31.20;;;;;;5060785;28;19913;-70
2023/05/25 13:55:21;;;;;;;;;;;26.20;31.30;;;;;;5066436;28;19909;-70
2023/05/25 13:57:47;;;;;;;;;;;26.00;31.50;;;;;;5052213;28;19917;-70
2023/05/25 14:00:13;;;;;;;;;;;25.80;31.60;;;;;;5063178;28;19962;-70
2023/05/25 14:02:38;;;;;;;;;;;25.80;31.90;;;;;;5065032;28;19970;-70
2023/05/25 14:05:04;;;;;;;;;;;25.80;32.10;;;;;;5058595;28;20284;-70
2023/05/25 14:07:30;;;;;;;;;;;25.80;32.20;;;;;;5035791;28;19912;-70
2023/05/25 14:09:55;;;;;;;;;;;25.90;31.70;;;;;;5058831;28;19928;-69
2023/05/25 14:12:21;;;;;;;;;;;25.90;31.80;;;;;;5058007;28;19955;-69
2023/05/25 14:14:46;;;;;;;;;;;25.90;31.50;;;;;;5059339;28;19967;-69